createdAt,value
2018-05-01T00:00:24.730Z,14.68
2018-05-01T00:02:53.729Z,14.68
2018-05-01T00:05:21.956Z,14.73
2018-05-01T00:07:50.214Z,14.77
2018-05-01T00:10:18.481Z,14.81
2018-05-01T00:12:46.710Z,14.77
2018-05-01T00:15:15.719Z,14.72
2018-05-01T00:17:44.734Z,14.74
2018-05-01T00:20:13.086Z,14.71
2018-05-01T00:22:42.081Z,14.67
2018-05-01T00:25:11.078Z,14.59
2018-05-01T00:27:39.326Z,14.60
2018-05-01T00:30:07.571Z,14.59
2018-05-01T00:32:35.816Z,14.57
2018-05-01T00:35:04.078Z,14.58
2018-05-01T00:37:33.083Z,14.60
2018-05-01T00:40:01.330Z,14.62
2018-05-01T00:42:29.798Z,14.61
2018-05-01T00:44:58.793Z,14.58
2018-05-01T00:47:27.026Z,14.58
2018-05-01T00:49:55.274Z,14.62
2018-05-01T00:52:41.318Z,14.67
2018-05-01T00:55:09.565Z,14.67
2018-05-01T00:57:37.809Z,14.69
2018-05-01T01:00:06.803Z,14.65
2018-05-01T01:02:35.822Z,14.63
2018-05-01T01:05:04.049Z,14.59
2018-05-01T01:07:32.282Z,14.58
2018-05-01T01:10:00.733Z,14.62
2018-05-01T01:12:28.970Z,14.60
2018-05-01T01:14:57.197Z,14.61
2018-05-01T01:17:25.484Z,14.57
2018-05-01T01:19:53.717Z,14.55
2018-05-01T01:22:22.723Z,14.55
2018-05-01T01:24:51.731Z,14.50
2018-05-01T01:27:19.985Z,14.56
2018-05-01T01:29:48.981Z,14.63
2018-05-01T01:32:17.997Z,14.56
2018-05-01T01:34:46.229Z,14.61
2018-05-01T01:37:13.682Z,14.51
2018-05-01T01:39:41.174Z,14.49
2018-05-01T01:42:09.377Z,14.46
2018-05-01T01:44:36.827Z,14.44
2018-05-01T01:47:04.270Z,14.47
2018-05-01T01:49:31.726Z,14.41
2018-05-01T01:51:59.165Z,14.40
2018-05-01T01:54:27.654Z,14.44
2018-05-01T01:56:55.094Z,14.44
2018-05-01T01:59:22.541Z,14.43
2018-05-01T02:01:50.054Z,14.48
2018-05-01T02:04:17.487Z,14.46
2018-05-01T02:06:44.930Z,14.48
2018-05-01T02:09:13.154Z,14.46
2018-05-01T02:11:40.606Z,14.45
2018-05-01T02:14:08.054Z,14.45
2018-05-01T02:16:35.510Z,14.49
2018-05-01T02:19:02.965Z,14.48
2018-05-01T02:21:30.418Z,14.47
2018-05-01T02:23:57.859Z,14.52
2018-05-01T02:26:25.322Z,14.52
2018-05-01T02:28:52.778Z,14.52
2018-05-01T02:31:20.226Z,14.49
2018-05-01T02:33:48.445Z,14.46
2018-05-01T02:36:15.882Z,14.45
2018-05-01T02:38:43.375Z,14.49
2018-05-01T02:41:10.860Z,14.51
2018-05-01T02:43:38.234Z,14.52
2018-05-01T02:46:05.696Z,14.52
2018-05-01T02:48:33.133Z,14.53
2018-05-01T02:51:01.443Z,14.49
2018-05-01T02:53:28.874Z,14.48
2018-05-01T02:55:56.334Z,14.49
2018-05-01T02:58:24.541Z,14.49
2018-05-01T03:00:52.002Z,14.50
2018-05-01T03:03:19.458Z,14.42
2018-05-01T03:05:46.911Z,14.31
2018-05-01T03:08:14.386Z,14.27
2018-05-01T03:10:41.821Z,14.33
2018-05-01T03:13:09.262Z,14.35
2018-05-01T03:15:36.801Z,14.34
2018-05-01T03:18:05.014Z,14.32
2018-05-01T03:20:32.467Z,14.26
2018-05-01T03:22:59.919Z,14.22
2018-05-01T03:25:27.379Z,14.24
2018-05-01T03:27:54.809Z,14.24
2018-05-01T03:30:22.248Z,14.21
2018-05-01T03:32:50.456Z,14.22
2018-05-01T03:35:17.909Z,14.21
2018-05-01T03:37:45.353Z,14.17
2018-05-01T03:40:12.793Z,14.15
2018-05-01T03:42:41.017Z,14.12
2018-05-01T03:45:08.501Z,14.06
2018-05-01T03:47:35.933Z,13.96
2018-05-01T03:50:03.379Z,13.82
2018-05-01T03:52:31.109Z,13.87
2018-05-01T03:54:59.317Z,13.94
2018-05-01T03:57:26.758Z,13.95
2018-05-01T03:59:54.213Z,13.90
2018-05-01T04:02:21.751Z,13.87
2018-05-01T04:04:49.882Z,13.74
2018-05-01T04:07:17.338Z,13.53
2018-05-01T04:09:44.773Z,13.64
2018-05-01T04:12:12.308Z,13.59
2018-05-01T04:14:40.548Z,13.71
2018-05-01T04:17:07.992Z,13.72
2018-05-01T04:19:35.429Z,13.60
2018-05-01T04:22:02.884Z,13.59
2018-05-01T04:24:30.340Z,13.53
2018-05-01T04:26:57.790Z,13.59
2018-05-01T04:29:25.243Z,13.61
2018-05-01T04:31:52.705Z,13.63
2018-05-01T04:34:20.145Z,13.61
2018-05-01T04:36:48.541Z,13.56
2018-05-01T04:39:15.982Z,13.43
2018-05-01T04:41:43.626Z,13.55
2018-05-01T04:44:11.834Z,13.58
2018-05-01T04:46:39.274Z,13.65
2018-05-01T04:49:06.721Z,13.69
2018-05-01T04:51:34.930Z,13.73
2018-05-01T04:54:02.385Z,13.65
2018-05-01T04:56:29.850Z,13.64
2018-05-01T04:58:57.293Z,13.60
2018-05-01T05:01:24.735Z,13.58
2018-05-01T05:03:52.187Z,13.56
2018-05-01T05:06:19.626Z,13.60
2018-05-01T05:08:47.841Z,13.72
2018-05-01T05:11:15.293Z,13.58
2018-05-01T05:13:42.746Z,13.54
2018-05-01T05:16:10.277Z,13.54
2018-05-01T05:18:38.805Z,13.67
2018-05-01T05:21:06.245Z,13.69
2018-05-01T05:23:33.689Z,13.70
2018-05-01T05:26:01.142Z,13.87
2018-05-01T05:28:28.598Z,13.94
2018-05-01T05:30:56.043Z,14.32
2018-05-01T05:33:24.266Z,14.08
2018-05-01T05:35:51.704Z,14.01
2018-05-01T05:38:20.065Z,14.02
2018-05-01T05:40:47.518Z,14.06
2018-05-01T05:43:15.280Z,14.05
2018-05-01T05:45:43.485Z,13.98
2018-05-01T05:48:10.934Z,14.05
2018-05-01T05:50:38.377Z,14.10
2018-05-01T05:53:05.842Z,14.13
2018-05-01T05:55:33.303Z,14.19
2018-05-01T05:58:00.746Z,14.15
2018-05-01T06:00:28.202Z,14.27
2018-05-01T06:02:55.753Z,14.26
2018-05-01T06:05:24.028Z,14.47
2018-05-01T06:07:52.282Z,14.38
2018-05-01T06:10:19.745Z,14.32
2018-05-01T06:12:47.953Z,14.29
2018-05-01T06:15:15.407Z,14.35
2018-05-01T06:17:42.851Z,14.45
2018-05-01T06:20:11.050Z,14.29
2018-05-01T06:22:38.518Z,14.16
2018-05-01T06:25:06.862Z,14.18
2018-05-01T06:27:35.064Z,14.10
2018-05-01T06:30:02.520Z,14.06
2018-05-01T06:32:29.957Z,14.12
2018-05-01T06:34:57.397Z,14.09
2018-05-01T06:37:25.709Z,14.18
2018-05-01T06:39:53.075Z,14.35
2018-05-01T06:42:20.514Z,14.35
2018-05-01T06:44:47.949Z,14.25
2018-05-01T06:47:15.402Z,14.19
2018-05-01T06:49:43.606Z,14.26
2018-05-01T06:52:11.057Z,14.28
2018-05-01T06:54:38.513Z,14.40
2018-05-01T06:57:05.966Z,14.55
2018-05-01T06:59:33.415Z,14.64
2018-05-01T07:02:00.893Z,14.71
2018-05-01T07:04:28.428Z,14.80
2018-05-01T07:06:55.786Z,14.83
2018-05-01T07:09:23.236Z,14.69
2018-05-01T07:11:50.677Z,14.81
2018-05-01T07:14:18.898Z,15.09
2018-05-01T07:16:46.346Z,15.37
2018-05-01T07:19:13.826Z,15.30
2018-05-01T07:21:41.277Z,15.10
2018-05-01T07:24:08.742Z,15.11
2018-05-01T07:26:36.188Z,15.24
2018-05-01T07:29:03.623Z,15.39
2018-05-01T07:31:31.074Z,15.47
2018-05-01T07:33:58.535Z,15.32
2018-05-01T07:36:25.969Z,15.44
2018-05-01T07:38:54.177Z,15.43
2018-05-01T07:41:21.631Z,15.31
2018-05-01T07:43:49.086Z,15.53
2018-05-01T07:46:16.530Z,15.64
2018-05-01T07:48:43.978Z,15.66
2018-05-01T07:51:11.433Z,15.66
2018-05-01T07:53:38.878Z,15.80
2018-05-01T07:56:07.115Z,16.00
2018-05-01T07:58:34.554Z,15.86
2018-05-01T08:01:02.007Z,16.16
2018-05-01T08:03:29.750Z,16.38
2018-05-01T08:05:57.189Z,16.41
2018-05-01T08:08:25.398Z,16.33
2018-05-01T08:10:52.862Z,16.32
2018-05-01T08:13:20.305Z,16.45
2018-05-01T08:15:47.759Z,16.37
2018-05-01T08:18:15.197Z,16.54
2018-05-01T08:20:42.643Z,16.54
2018-05-01T08:23:10.858Z,16.48
2018-05-01T08:25:38.293Z,16.97
2018-05-01T08:28:05.745Z,16.92
2018-05-01T08:30:33.222Z,17.08
2018-05-01T08:33:01.408Z,17.30
2018-05-01T08:35:28.856Z,17.19
2018-05-01T08:37:56.302Z,17.40
2018-05-01T08:40:23.937Z,17.34
2018-05-01T08:42:51.417Z,17.14
2018-05-01T08:45:18.897Z,17.25
2018-05-01T08:47:47.075Z,17.64
2018-05-01T08:50:14.516Z,17.78
2018-05-01T08:52:41.970Z,17.97
2018-05-01T08:55:09.414Z,18.30
2018-05-01T08:57:36.853Z,17.97
2018-05-01T09:00:05.078Z,18.13
2018-05-01T09:02:32.518Z,18.41
2018-05-01T09:04:59.964Z,18.14
2018-05-01T09:07:27.421Z,18.10
2018-05-01T09:09:54.862Z,17.78
2018-05-01T09:12:23.070Z,17.63
2018-05-01T09:14:50.527Z,17.28
2018-05-01T09:17:17.970Z,17.24
2018-05-01T09:19:45.433Z,17.01
2018-05-01T09:22:12.883Z,16.92
2018-05-01T09:24:40.321Z,16.88
2018-05-01T09:27:07.782Z,16.62
2018-05-01T09:29:36.080Z,16.70
2018-05-01T09:32:03.527Z,16.70
2018-05-01T09:34:30.969Z,16.72
2018-05-01T09:36:58.419Z,16.70
2018-05-01T09:39:26.802Z,16.57
2018-05-01T09:41:55.057Z,16.58
2018-05-01T09:44:22.445Z,16.51
2018-05-01T09:46:49.897Z,16.71
2018-05-01T09:49:17.349Z,16.74
2018-05-01T09:51:44.797Z,16.88
2018-05-01T09:54:13.793Z,16.77
2018-05-01T09:56:42.809Z,16.77
2018-05-01T09:59:11.070Z,16.69
2018-05-01T10:01:39.335Z,16.97
2018-05-01T10:04:08.320Z,16.91
2018-05-01T10:06:37.429Z,17.66
2018-05-01T10:09:05.666Z,17.57
2018-05-01T10:11:33.929Z,17.81
2018-05-01T10:14:02.158Z,17.63
2018-05-01T10:16:30.390Z,17.47
2018-05-01T10:18:58.675Z,17.81
2018-05-01T10:21:26.917Z,17.69
2018-05-01T10:23:55.457Z,17.61
2018-05-01T10:26:24.460Z,17.48
2018-05-01T10:28:53.451Z,17.45
2018-05-01T10:31:22.465Z,17.47
2018-05-01T10:33:50.701Z,17.46
2018-05-01T10:36:18.945Z,17.44
2018-05-01T10:38:47.277Z,17.60
2018-05-01T10:41:15.448Z,17.28
2018-05-01T10:43:44.458Z,17.31
2018-05-01T10:46:12.694Z,17.21
2018-05-01T10:48:40.943Z,17.19
2018-05-01T10:51:09.173Z,17.26
2018-05-01T10:53:37.438Z,17.18
2018-05-01T10:56:06.433Z,17.20
2018-05-01T10:58:34.687Z,17.15
2018-05-01T11:01:02.971Z,16.65
2018-05-01T11:03:31.980Z,16.49
2018-05-01T11:06:01.111Z,16.76
2018-05-01T11:08:29.384Z,16.91
2018-05-01T11:10:57.655Z,16.95
2018-05-01T11:13:25.927Z,17.06
2018-05-01T11:15:54.157Z,16.97
2018-05-01T11:18:23.158Z,17.04
2018-05-01T11:20:52.176Z,17.27
2018-05-01T11:23:20.465Z,17.31
2018-05-01T11:25:48.969Z,17.28
2018-05-01T11:28:17.215Z,17.29
2018-05-01T11:30:45.451Z,17.48
2018-05-01T11:33:13.818Z,17.79
2018-05-01T11:35:42.057Z,17.90
2018-05-01T11:38:10.281Z,17.57
2018-05-01T11:40:39.295Z,17.43
2018-05-01T11:43:07.541Z,17.51
2018-05-01T11:45:35.789Z,17.56
2018-05-01T11:48:04.053Z,17.56
2018-05-01T11:50:32.285Z,17.57
2018-05-01T11:53:01.301Z,17.73
2018-05-01T11:55:29.542Z,17.86
2018-05-01T11:57:57.789Z,17.77
2018-05-01T12:00:26.034Z,17.91
2018-05-01T12:02:54.618Z,18.11
2018-05-01T12:05:22.868Z,18.33
2018-05-01T12:07:51.874Z,18.66
2018-05-01T12:10:20.242Z,19.07
2018-05-01T12:12:49.245Z,19.32
2018-05-01T12:15:17.478Z,19.39
2018-05-01T12:17:46.099Z,19.54
2018-05-01T12:20:15.093Z,19.32
2018-05-01T12:22:43.345Z,19.47
2018-05-01T12:25:11.591Z,19.67
2018-05-01T12:27:39.833Z,20.09
2018-05-01T12:30:08.217Z,19.63
2018-05-01T12:32:36.437Z,19.55
2018-05-01T12:35:04.673Z,19.78
2018-05-01T12:37:32.921Z,19.91
2018-05-01T12:40:01.933Z,19.93
2018-05-01T12:42:30.206Z,19.94
2018-05-01T12:44:58.421Z,19.74
2018-05-01T12:47:26.770Z,19.61
2018-05-01T12:49:55.046Z,19.33
2018-05-01T12:52:23.282Z,19.46
2018-05-01T12:54:52.298Z,19.72
2018-05-01T12:57:20.560Z,19.90
2018-05-01T12:59:49.562Z,19.80
2018-05-01T13:02:18.182Z,19.78
2018-05-01T13:04:46.426Z,19.88
2018-05-01T13:07:14.664Z,19.81
2018-05-01T13:09:42.908Z,19.26
2018-05-01T13:12:11.141Z,19.19
2018-05-01T13:14:39.391Z,19.04
2018-05-01T13:17:07.618Z,19.21
2018-05-01T13:19:35.869Z,19.21
2018-05-01T13:22:04.108Z,19.31
2018-05-01T13:24:32.346Z,19.59
2018-05-01T13:27:00.590Z,19.21
2018-05-01T13:29:29.585Z,19.23
2018-05-01T13:31:58.067Z,18.91
2018-05-01T13:34:27.065Z,18.95
2018-05-01T13:36:55.362Z,18.92
2018-05-01T13:39:23.612Z,18.97
2018-05-01T13:41:52.613Z,19.27
2018-05-01T13:44:20.885Z,19.45
2018-05-01T13:46:49.121Z,19.70
2018-05-01T13:49:17.354Z,20.07
2018-05-01T13:51:45.617Z,20.02
2018-05-01T13:54:13.881Z,19.75
2018-05-01T13:56:42.877Z,19.35
2018-05-01T13:59:11.146Z,18.91
2018-05-01T14:01:40.141Z,18.73
2018-05-01T14:04:09.142Z,18.62
2018-05-01T14:06:37.442Z,18.81
2018-05-01T14:09:05.666Z,19.14
2018-05-01T14:11:33.918Z,19.22
2018-05-01T14:14:02.157Z,19.03
2018-05-01T14:16:30.389Z,18.87
2018-05-01T14:18:58.637Z,18.86
2018-05-01T14:21:26.866Z,18.69
2018-05-01T14:23:55.097Z,18.50
2018-05-01T14:26:23.341Z,18.49
2018-05-01T14:28:51.613Z,18.94
2018-05-01T14:31:20.602Z,18.79
2018-05-01T14:33:48.850Z,18.57
2018-05-01T14:36:18.072Z,18.42
2018-05-01T14:38:47.049Z,18.54
2018-05-01T14:41:16.055Z,18.52
2018-05-01T14:43:44.299Z,18.43
2018-05-01T14:46:13.305Z,18.54
2018-05-01T14:48:42.328Z,18.48
2018-05-01T14:51:10.563Z,18.32
2018-05-01T14:53:39.681Z,18.47
2018-05-01T14:56:07.930Z,18.38
2018-05-01T14:58:36.161Z,18.41
2018-05-01T15:01:04.406Z,18.40
2018-05-01T15:03:32.649Z,18.40
2018-05-01T15:06:00.947Z,18.40
2018-05-01T15:08:29.970Z,18.41
2018-05-01T15:10:58.242Z,18.34
2018-05-01T15:13:26.474Z,18.46
2018-05-01T15:15:54.722Z,18.40
2018-05-01T15:18:22.949Z,18.37
2018-05-01T15:20:51.190Z,18.32
2018-05-01T15:23:19.433Z,18.54
2018-05-01T15:25:47.665Z,18.41
2018-05-01T15:28:16.678Z,18.19
2018-05-01T15:30:44.909Z,18.00
2018-05-01T15:33:13.222Z,18.17
2018-05-01T15:35:42.221Z,17.95
2018-05-01T15:38:10.477Z,17.91
2018-05-01T15:40:39.485Z,17.88
2018-05-01T15:43:07.737Z,17.97
2018-05-01T15:45:35.986Z,17.97
2018-05-01T15:48:04.227Z,17.94
2018-05-01T15:50:32.462Z,17.77
2018-05-01T15:53:00.715Z,17.83
2018-05-01T15:55:28.939Z,17.85
2018-05-01T15:57:57.173Z,17.98
2018-05-01T16:00:25.421Z,17.81
2018-05-01T16:02:53.656Z,17.87
2018-05-01T16:05:22.654Z,17.98
2018-05-01T16:07:50.915Z,18.02
2018-05-01T16:10:19.190Z,18.04
2018-05-01T16:12:48.284Z,17.87
2018-05-01T16:15:16.599Z,17.69
2018-05-01T16:17:44.818Z,17.62
2018-05-01T16:20:13.066Z,17.76
2018-05-01T16:22:41.294Z,17.66
2018-05-01T16:25:10.314Z,17.81
2018-05-01T16:27:38.554Z,17.67
2018-05-01T16:30:07.550Z,17.64
2018-05-01T16:32:36.570Z,17.70
2018-05-01T16:35:04.809Z,17.58
2018-05-01T16:37:33.065Z,17.57
2018-05-01T16:40:01.306Z,17.52
2018-05-01T16:42:29.533Z,17.60
2018-05-01T16:44:57.777Z,17.42
2018-05-01T16:47:26.009Z,17.37
2018-05-01T16:49:54.253Z,17.39
2018-05-01T16:52:22.487Z,17.36
2018-05-01T16:54:50.738Z,17.31
2018-05-01T16:57:18.977Z,17.26
2018-05-01T16:59:47.211Z,17.21
2018-05-01T17:02:15.441Z,17.18
2018-05-01T17:04:44.575Z,17.26
2018-05-01T17:07:12.807Z,17.27
2018-05-01T17:09:41.054Z,17.25
2018-05-01T17:12:09.312Z,17.28
2018-05-01T17:14:37.534Z,17.26
2018-05-01T17:17:05.766Z,17.27
2018-05-01T17:19:34.009Z,17.12
2018-05-01T17:22:02.258Z,17.15
2018-05-01T17:24:30.503Z,17.08
2018-05-01T17:26:58.762Z,16.98
2018-05-01T17:29:27.000Z,16.93
2018-05-01T17:31:55.229Z,16.94
2018-05-01T17:34:24.109Z,17.00
2018-05-01T17:36:52.362Z,16.98
2018-05-01T17:39:20.614Z,16.98
2018-05-01T17:41:49.629Z,16.99
2018-05-01T17:44:17.888Z,17.01
2018-05-01T17:46:46.915Z,16.94
2018-05-01T17:49:15.177Z,16.94
2018-05-01T17:51:43.420Z,16.91
2018-05-01T17:54:12.430Z,16.94
2018-05-01T17:56:40.687Z,16.89
2018-05-01T17:59:09.684Z,16.84
2018-05-01T18:01:38.700Z,16.91
2018-05-01T18:04:07.177Z,16.79
2018-05-01T18:06:35.501Z,16.90
2018-05-01T18:09:04.423Z,16.82
2018-05-01T18:11:33.435Z,16.68
2018-05-01T18:14:01.672Z,16.61
2018-05-01T18:16:30.190Z,16.67
2018-05-01T18:18:59.187Z,16.56
2018-05-01T18:21:27.431Z,16.47
2018-05-01T18:23:55.681Z,16.37
2018-05-01T18:26:23.917Z,16.38
2018-05-01T18:28:52.160Z,16.41
2018-05-01T18:31:20.397Z,16.38
2018-05-01T18:33:48.641Z,16.39
2018-05-01T18:36:16.994Z,16.46
2018-05-01T18:38:45.139Z,16.42
2018-05-01T18:41:13.381Z,16.41
2018-05-01T18:43:41.622Z,16.38
2018-05-01T18:46:10.637Z,16.38
2018-05-01T18:48:38.879Z,16.44
2018-05-01T18:51:07.118Z,16.53
2018-05-01T18:53:35.345Z,16.43
2018-05-01T18:56:04.357Z,16.33
2018-05-01T18:58:32.598Z,16.26
2018-05-01T19:01:00.823Z,16.19
2018-05-01T19:03:29.082Z,16.21
2018-05-01T19:05:57.321Z,16.14
2018-05-01T19:08:25.563Z,16.10
2018-05-01T19:10:53.814Z,16.14
2018-05-01T19:13:22.074Z,16.15
2018-05-01T19:15:51.199Z,16.22
2018-05-01T19:18:19.438Z,16.08
2018-05-01T19:20:48.470Z,16.02
2018-05-01T19:23:16.747Z,16.04
2018-05-01T19:25:45.278Z,16.03
2018-05-01T19:28:13.562Z,16.01
2018-05-01T19:30:42.570Z,15.99
2018-05-01T19:33:10.841Z,16.03
2018-05-01T19:35:39.841Z,16.04
2018-05-01T19:38:08.102Z,16.10
2018-05-01T19:40:37.182Z,15.99
2018-05-01T19:43:05.406Z,15.79
2018-05-01T19:45:33.659Z,15.71
2018-05-01T19:48:01.966Z,15.71
2018-05-01T19:50:30.214Z,15.78
2018-05-01T19:52:58.461Z,15.86
2018-05-01T19:55:26.706Z,15.79
2018-05-01T19:57:55.227Z,15.58
2018-05-01T20:00:24.233Z,15.56
2018-05-01T20:02:53.285Z,15.47
2018-05-01T20:05:21.735Z,15.43
2018-05-01T20:07:50.062Z,15.34
2018-05-01T20:10:18.325Z,15.28
2018-05-01T20:12:46.561Z,15.38
2018-05-01T20:15:15.764Z,15.49
2018-05-01T20:17:44.041Z,15.34
2018-05-01T20:20:12.295Z,15.21
2018-05-01T20:22:41.293Z,15.38
2018-05-01T20:25:09.523Z,15.32
2018-05-01T20:27:37.770Z,15.11
2018-05-01T20:30:06.034Z,15.35
2018-05-01T20:32:34.275Z,15.31
2018-05-01T20:35:03.301Z,15.19
2018-05-01T20:37:31.530Z,15.04
2018-05-01T20:39:59.777Z,15.06
2018-05-01T20:42:28.012Z,14.92
2018-05-01T20:44:56.265Z,14.95
2018-05-01T20:47:25.334Z,15.02
2018-05-01T20:49:53.580Z,15.13
2018-05-01T20:52:21.805Z,15.06
2018-05-01T20:54:50.813Z,15.11
2018-05-01T20:57:19.834Z,15.13
2018-05-01T20:59:48.067Z,15.06
2018-05-01T21:02:17.076Z,15.10
2018-05-01T21:04:46.095Z,14.97
2018-05-01T21:07:14.344Z,14.91
2018-05-01T21:09:43.342Z,15.05
2018-05-01T21:12:11.591Z,15.02
2018-05-01T21:14:39.846Z,14.92
2018-05-01T21:17:08.889Z,14.90
2018-05-01T21:19:37.492Z,14.97
2018-05-01T21:22:05.745Z,14.91
2018-05-01T21:24:33.948Z,14.93
2018-05-01T21:27:02.202Z,14.91
2018-05-01T21:29:30.434Z,14.92
2018-05-01T21:31:58.691Z,14.94
2018-05-01T21:34:26.972Z,14.89
2018-05-01T21:36:55.161Z,14.92
2018-05-01T21:39:23.402Z,14.84
2018-05-01T21:41:51.641Z,14.84
2018-05-01T21:44:20.650Z,14.77
2018-05-01T21:46:48.890Z,14.80
2018-05-01T21:49:17.129Z,14.68
2018-05-01T21:51:45.373Z,14.70
2018-05-01T21:54:13.613Z,14.70
2018-05-01T21:56:41.941Z,14.88
2018-05-01T21:59:10.171Z,14.69
2018-05-01T22:01:38.410Z,14.59
2018-05-01T22:04:06.742Z,14.61
2018-05-01T22:06:35.750Z,14.52
2018-05-01T22:09:03.990Z,14.53
2018-05-01T22:11:33.014Z,14.46
2018-05-01T22:14:01.263Z,14.48
2018-05-01T22:16:29.529Z,14.43
2018-05-01T22:18:57.758Z,14.43
2018-05-01T22:21:25.994Z,14.43
2018-05-01T22:23:55.002Z,14.46
2018-05-01T22:26:23.255Z,14.38
2018-05-01T22:28:51.522Z,14.41
2018-05-01T22:31:19.722Z,14.37
2018-05-01T22:33:48.787Z,14.34
2018-05-01T22:36:16.965Z,14.33
2018-05-01T22:38:45.194Z,14.36
2018-05-01T22:41:13.751Z,14.27
2018-05-01T22:43:42.749Z,14.29
2018-05-01T22:46:10.977Z,14.45
2018-05-01T22:48:39.242Z,14.36
2018-05-01T22:51:07.474Z,14.25
2018-05-01T22:53:35.702Z,14.24
2018-05-01T22:56:03.954Z,14.28
2018-05-01T22:58:32.200Z,14.33
2018-05-01T23:01:00.450Z,14.34
2018-05-01T23:03:28.693Z,14.50
2018-05-01T23:05:56.930Z,14.34
2018-05-01T23:08:25.161Z,14.27
2018-05-01T23:10:53.411Z,14.21
2018-05-01T23:13:21.661Z,14.32
2018-05-01T23:15:49.947Z,14.14
2018-05-01T23:18:18.170Z,14.20
2018-05-01T23:20:46.474Z,14.13
2018-05-01T23:23:15.477Z,14.24
2018-05-01T23:25:43.710Z,14.19
2018-05-01T23:28:11.942Z,14.13
2018-05-01T23:30:40.185Z,14.17
2018-05-01T23:33:09.187Z,14.09
2018-05-01T23:35:37.766Z,13.89
2018-05-01T23:38:06.794Z,13.92
2018-05-01T23:40:35.093Z,13.77
2018-05-01T23:43:03.334Z,14.08
2018-05-01T23:45:31.566Z,13.83
2018-05-01T23:47:59.801Z,13.85
2018-05-01T23:50:28.042Z,13.81
2018-05-01T23:52:57.041Z,13.75
2018-05-01T23:55:25.286Z,13.69
2018-05-01T23:57:53.526Z,13.79
